createdAt,value
2019-01-05T00:00:45.297Z,1.12
2019-01-05T00:03:35.821Z,1.20
2019-01-05T00:06:26.944Z,1.02
2019-01-05T00:09:18.118Z,0.40
2019-01-05T00:12:05.056Z,1.55
2019-01-05T00:15:09.246Z,0.62
2019-01-05T00:18:00.050Z,1.55
2019-01-05T00:20:40.717Z,1.50
2019-01-05T00:23:25.168Z,0.55
2019-01-05T00:26:15.555Z,0.60
2019-01-05T00:28:56.641Z,0.50
2019-01-05T00:32:03.351Z,0.55
2019-01-05T00:35:09.539Z,0.70
2019-01-05T00:38:00.376Z,1.30
2019-01-05T00:40:47.403Z,0.70
2019-01-05T00:43:45.095Z,0.90
2019-01-05T00:46:35.150Z,0.57
2019-01-05T00:49:39.658Z,1.32
2019-01-05T00:52:30.937Z,0.40
2019-01-05T00:55:21.726Z,0.93
2019-01-05T00:58:11.773Z,0.53
2019-01-05T01:01:05.042Z,0.80
2019-01-05T01:03:52.605Z,0.75
2019-01-05T01:06:36.140Z,0.70
2019-01-05T01:09:39.678Z,0.68
2019-01-05T01:12:29.581Z,0.60
2019-01-05T01:15:19.188Z,1.50
2019-01-05T01:18:20.639Z,0.88
2019-01-05T01:21:11.813Z,0.55
2019-01-05T01:24:06.695Z,0.53
2019-01-05T01:27:03.664Z,0.72
2019-01-05T01:29:48.891Z,0.75
2019-01-05T01:32:38.420Z,0.60
2019-01-05T01:35:47.573Z,0.40
2019-01-05T01:38:48.012Z,0.78
2019-01-05T01:42:04.937Z,0.72
2019-01-05T01:45:04.610Z,0.78
2019-01-05T01:47:56.314Z,0.30
2019-01-05T01:50:49.715Z,0.68
2019-01-05T01:53:39.800Z,0.30
2019-01-05T01:56:33.713Z,0.47
2019-01-05T01:59:32.975Z,1.00
2019-01-05T02:02:21.826Z,1.42
2019-01-05T02:05:12.774Z,1.05
2019-01-05T02:08:07.527Z,0.68
2019-01-05T02:11:04.146Z,0.65
2019-01-05T02:13:59.046Z,0.72
2019-01-05T02:17:03.616Z,1.02
2019-01-05T02:20:11.514Z,0.90
2019-01-05T02:24:10.027Z,1.32
2019-01-05T02:27:39.642Z,0.72
2019-01-05T02:31:17.408Z,0.50
2019-01-05T02:35:03.897Z,0.40
2019-01-05T02:38:37.684Z,0.65
2019-01-05T02:42:09.402Z,0.68
2019-01-05T02:45:49.160Z,1.50
2019-01-05T02:49:27.479Z,2.37
2019-01-05T02:52:54.705Z,0.23
2019-01-05T02:56:47.392Z,1.87
2019-01-05T03:00:36.441Z,0.50
2019-01-05T03:03:58.687Z,0.23
2019-01-05T03:08:04.429Z,0.88
2019-01-05T03:11:37.058Z,0.20
2019-01-05T03:15:34.987Z,0.20
2019-01-05T03:19:37.714Z,0.20
2019-01-05T03:23:45.163Z,0.20
2019-01-05T03:27:36.023Z,0.10
2019-01-05T03:31:42.521Z,0.10
2019-01-05T03:35:13.040Z,0.45
2019-01-05T03:38:35.275Z,0.20
2019-01-05T03:43:01.320Z,0.10
2019-01-05T03:46:59.356Z,0.10
2019-01-05T03:50:40.686Z,0.10
2019-01-05T03:54:09.258Z,0.15
2019-01-05T03:57:46.726Z,0.10
2019-01-05T04:01:23.413Z,0.10
2019-01-05T04:05:14.453Z,0.10
2019-01-05T04:08:48.879Z,0.10
2019-01-05T04:12:30.325Z,0.10
2019-01-05T04:16:18.012Z,0.20
2019-01-05T04:20:02.506Z,0.10
2019-01-05T04:23:59.804Z,0.10
2019-01-05T04:27:28.293Z,0.20
2019-01-05T04:31:10.956Z,0.10
2019-01-05T04:34:43.914Z,0.20
2019-01-05T04:38:17.134Z,0.37
2019-01-05T04:42:03.855Z,0.25
2019-01-05T04:45:59.032Z,0.10
2019-01-05T04:49:32.515Z,0.10
2019-01-05T04:53:27.277Z,0.10
2019-01-05T04:57:03.195Z,0.20
2019-01-05T05:00:54.692Z,0.20
2019-01-05T05:04:46.857Z,0.10
2019-01-05T05:08:45.388Z,0.28
2019-01-05T05:12:55.275Z,0.20
2019-01-05T05:16:27.927Z,0.10
2019-01-05T05:20:09.302Z,0.72
2019-01-05T05:23:45.997Z,0.20
2019-01-05T05:27:21.040Z,0.30
2019-01-05T05:31:01.057Z,0.10
2019-01-05T05:34:59.834Z,0.20
2019-01-05T05:38:34.093Z,0.10
2019-01-05T05:42:10.002Z,0.10
2019-01-05T05:45:51.201Z,0.10
2019-01-05T05:49:36.708Z,0.33
2019-01-05T05:53:28.174Z,0.17
2019-01-05T05:57:03.584Z,0.47
2019-01-05T06:00:34.763Z,0.10
2019-01-05T06:04:30.378Z,0.20
2019-01-05T06:08:09.897Z,0.50
2019-01-05T06:11:57.126Z,1.42
2019-01-05T06:16:04.106Z,0.10
2019-01-05T06:20:10.089Z,0.20
2019-01-05T06:23:38.775Z,0.90
2019-01-05T06:27:19.499Z,0.20
2019-01-05T06:31:12.769Z,0.28
2019-01-05T06:34:42.269Z,0.20
2019-01-05T06:38:04.902Z,0.30
2019-01-05T06:42:16.774Z,0.33
2019-01-05T06:46:09.247Z,0.20
2019-01-05T06:49:59.255Z,0.70
2019-01-05T06:53:45.245Z,0.20
2019-01-05T06:57:49.567Z,0.30
2019-01-05T07:01:53.702Z,0.70
2019-01-05T07:05:29.215Z,0.30
2019-01-05T07:09:29.723Z,0.30
2019-01-05T07:13:19.534Z,0.47
2019-01-05T07:17:13.249Z,0.53
2019-01-05T07:20:44.547Z,1.15
2019-01-05T07:24:28.076Z,0.50
2019-01-05T07:28:14.407Z,0.40
2019-01-05T07:31:56.636Z,0.33
2019-01-05T07:35:30.370Z,0.50
2019-01-05T07:39:14.871Z,0.70
2019-01-05T07:43:10.134Z,0.60
2019-01-05T07:46:52.033Z,0.60
2019-01-05T07:50:49.913Z,0.65
2019-01-05T07:54:28.411Z,0.60
2019-01-05T07:58:25.506Z,0.70
2019-01-05T08:02:07.181Z,1.10
2019-01-05T08:05:52.965Z,2.00
2019-01-05T08:09:21.272Z,1.62
2019-01-05T08:13:08.681Z,2.45
2019-01-05T08:17:23.499Z,2.98
2019-01-05T08:21:07.834Z,5.03
2019-01-05T08:24:56.264Z,3.45
2019-01-05T08:28:25.775Z,3.45
2019-01-05T08:32:18.195Z,8.28
2019-01-05T08:35:37.044Z,5.65
2019-01-05T08:39:15.692Z,3.62
2019-01-05T08:43:20.122Z,2.45
2019-01-05T08:47:03.763Z,2.67
2019-01-05T08:50:52.219Z,3.62
2019-01-05T08:54:57.904Z,2.22
2019-01-05T08:58:55.549Z,2.37
2019-01-05T09:02:42.929Z,5.75
2019-01-05T09:06:38.908Z,2.87
2019-01-05T09:10:22.687Z,3.60
2019-01-05T09:14:08.550Z,3.83
2019-01-05T09:17:53.421Z,3.55
2019-01-05T09:21:33.887Z,5.10
2019-01-05T09:25:23.921Z,4.05
2019-01-05T09:29:02.433Z,3.50
2019-01-05T09:32:32.395Z,3.05
2019-01-05T09:36:18.010Z,2.87
2019-01-05T09:40:16.223Z,2.80
2019-01-05T09:44:10.510Z,4.08
2019-01-05T09:48:15.647Z,4.58
2019-01-05T09:51:57.672Z,3.08
2019-01-05T09:55:42.963Z,3.85
2019-01-05T09:59:15.607Z,2.37
2019-01-05T10:03:07.692Z,3.10
2019-01-05T10:06:44.464Z,2.02
2019-01-05T10:10:26.017Z,3.00
2019-01-05T10:13:57.706Z,2.42
2019-01-05T10:18:13.700Z,4.35
2019-01-05T10:22:01.414Z,2.02
2019-01-05T10:25:56.729Z,3.77
2019-01-05T10:29:45.219Z,2.72
2019-01-05T10:33:58.547Z,2.22
2019-01-05T10:38:09.282Z,1.95
2019-01-05T10:41:59.188Z,12.90
2019-01-05T10:45:33.452Z,5.97
2019-01-05T10:49:12.796Z,7.90
2019-01-05T10:52:41.753Z,5.30
2019-01-05T10:56:23.602Z,4.85
2019-01-05T10:59:59.282Z,5.57
2019-01-05T11:03:49.399Z,4.17
2019-01-05T11:07:47.374Z,3.20
2019-01-05T11:11:45.251Z,3.85
2019-01-05T11:15:34.350Z,3.60
2019-01-05T11:19:17.783Z,3.15
2019-01-05T11:22:49.555Z,4.47
2019-01-05T11:26:38.881Z,3.77
2019-01-05T11:30:49.422Z,3.40
2019-01-05T11:34:24.818Z,3.50
2019-01-05T11:38:07.330Z,2.98
2019-01-05T11:41:50.395Z,3.90
2019-01-05T11:45:18.871Z,4.83
2019-01-05T11:48:58.449Z,4.33
2019-01-05T11:53:03.036Z,4.20
2019-01-05T11:56:54.698Z,3.90
2019-01-05T12:00:42.753Z,3.50
2019-01-05T12:04:09.862Z,5.65
2019-01-05T12:07:44.904Z,4.05
2019-01-05T12:11:41.344Z,4.10
2019-01-05T12:15:19.004Z,4.37
2019-01-05T12:19:11.518Z,3.85
2019-01-05T12:23:07.114Z,5.97
2019-01-05T12:26:37.991Z,4.80
2019-01-05T12:30:33.407Z,3.65
2019-01-05T12:34:22.675Z,3.33
2019-01-05T12:38:03.756Z,6.08
2019-01-05T12:41:59.668Z,3.90
2019-01-05T12:45:44.078Z,3.15
2019-01-05T12:49:31.145Z,3.90
2019-01-05T12:53:11.400Z,4.37
2019-01-05T12:56:54.677Z,3.22
2019-01-05T13:00:42.904Z,4.60
2019-01-05T13:04:34.950Z,5.05
2019-01-05T13:08:34.036Z,3.37
2019-01-05T13:12:21.551Z,2.95
2019-01-05T13:15:57.872Z,5.45
2019-01-05T13:19:44.862Z,2.80
2019-01-05T13:23:23.048Z,7.67
2019-01-05T13:27:15.667Z,13.78
2019-01-05T13:31:04.418Z,7.28
2019-01-05T13:34:49.052Z,5.28
2019-01-05T13:38:36.004Z,6.42
2019-01-05T13:42:05.583Z,5.28
2019-01-05T13:46:05.614Z,4.08
2019-01-05T13:49:40.400Z,3.57
2019-01-05T13:52:55.823Z,3.60
2019-01-05T13:56:02.226Z,3.20
2019-01-05T13:58:54.635Z,3.35
2019-01-05T14:01:41.648Z,2.90
2019-01-05T14:04:33.717Z,2.20
2019-01-05T14:07:35.374Z,3.52
2019-01-05T14:10:25.443Z,2.50
2019-01-05T14:13:24.245Z,2.40
2019-01-05T14:16:13.878Z,2.17
2019-01-05T14:19:03.440Z,1.90
2019-01-05T14:21:51.030Z,2.85
2019-01-05T14:24:48.172Z,2.12
2019-01-05T14:27:38.209Z,3.05
2019-01-05T14:30:27.963Z,3.75
2019-01-05T14:33:11.687Z,2.10
2019-01-05T14:36:10.970Z,3.15
2019-01-05T14:38:54.307Z,3.70
2019-01-05T14:41:43.888Z,3.52
2019-01-05T14:44:38.785Z,2.98
2019-01-05T14:47:34.553Z,5.92
2019-01-05T14:50:24.597Z,3.50
2019-01-05T14:53:17.132Z,3.77
2019-01-05T14:56:07.674Z,5.92
2019-01-05T14:58:58.526Z,4.95
2019-01-05T15:01:51.247Z,4.03
2019-01-05T15:04:47.896Z,3.50
2019-01-05T15:07:28.929Z,4.33
2019-01-05T15:10:16.604Z,3.90
2019-01-05T15:13:05.510Z,8.40
2019-01-05T15:15:54.652Z,4.17
2019-01-05T15:18:44.056Z,4.65
2019-01-05T15:21:33.310Z,6.83
2019-01-05T15:24:22.643Z,5.78
2019-01-05T15:27:13.210Z,5.33
2019-01-05T15:30:07.430Z,5.90
2019-01-05T15:32:56.371Z,5.22
2019-01-05T15:35:45.660Z,8.13
2019-01-05T15:38:29.636Z,6.12
2019-01-05T15:41:26.020Z,6.95
2019-01-05T15:44:14.630Z,7.85
2019-01-05T15:47:01.107Z,8.00
2019-01-05T15:49:49.956Z,12.55
2019-01-05T15:52:49.742Z,7.25
2019-01-05T15:55:32.687Z,10.98
2019-01-05T15:58:28.073Z,8.78
2019-01-05T16:01:16.851Z,7.78
2019-01-05T16:04:06.282Z,8.23
2019-01-05T16:06:52.938Z,8.38
2019-01-05T16:09:52.853Z,9.73
2019-01-05T16:12:42.090Z,11.50
2019-01-05T16:15:31.476Z,11.08
2019-01-05T16:18:26.206Z,13.88
2019-01-05T16:21:19.188Z,12.25
2019-01-05T16:24:24.971Z,13.72
2019-01-05T16:27:14.341Z,14.38
2019-01-05T16:30:03.518Z,17.92
2019-01-05T16:32:57.318Z,15.18
2019-01-05T16:35:53.612Z,14.75
2019-01-05T16:38:43.301Z,13.20
2019-01-05T16:41:43.403Z,13.32
2019-01-05T16:44:32.543Z,12.53
2019-01-05T16:47:21.546Z,14.25
2019-01-05T16:50:14.662Z,14.80
2019-01-05T16:53:11.540Z,13.10
2019-01-05T16:56:05.171Z,14.60
2019-01-05T16:59:01.707Z,14.65
2019-01-05T17:01:49.732Z,14.50
2019-01-05T17:04:40.263Z,20.05
2019-01-05T17:07:29.284Z,19.32
2019-01-05T17:10:24.342Z,18.42
2019-01-05T17:13:13.000Z,17.35
2019-01-05T17:16:02.373Z,20.27
2019-01-05T17:19:07.938Z,13.08
2019-01-05T17:21:57.885Z,14.23
2019-01-05T17:24:47.294Z,16.45
2019-01-05T17:27:27.766Z,13.30
2019-01-05T17:30:16.385Z,16.87
2019-01-05T17:33:05.276Z,23.22
2019-01-05T17:35:50.657Z,21.40
2019-01-05T17:38:51.709Z,24.37
2019-01-05T17:41:37.862Z,20.00
2019-01-05T17:44:20.598Z,23.42
2019-01-05T17:47:12.441Z,22.93
2019-01-05T17:50:06.838Z,20.15
2019-01-05T17:52:56.061Z,27.22
2019-01-05T17:55:54.565Z,27.25
2019-01-05T17:59:03.382Z,29.55
2019-01-05T18:02:05.571Z,26.02
2019-01-05T18:04:56.748Z,23.27
2019-01-05T18:07:45.732Z,29.57
2019-01-05T18:10:48.273Z,26.30
2019-01-05T18:13:43.016Z,29.57
2019-01-05T18:16:27.862Z,26.80
2019-01-05T18:19:27.122Z,28.15
2019-01-05T18:22:09.791Z,25.97
2019-01-05T18:24:59.548Z,28.57
2019-01-05T18:28:05.399Z,23.95
2019-01-05T18:31:00.138Z,23.15
2019-01-05T18:33:53.549Z,22.15
2019-01-05T18:36:44.188Z,29.85
2019-01-05T18:39:32.890Z,26.02
2019-01-05T18:42:22.077Z,22.13
2019-01-05T18:45:11.057Z,26.75
2019-01-05T18:47:51.324Z,29.35
2019-01-05T18:50:35.085Z,27.20
2019-01-05T18:53:20.752Z,24.90
2019-01-05T18:56:11.621Z,22.65
2019-01-05T18:59:00.585Z,24.77
2019-01-05T19:01:59.720Z,18.30
2019-01-05T19:04:49.149Z,22.27
2019-01-05T19:07:48.884Z,23.50
2019-01-05T19:10:38.600Z,21.65
2019-01-05T19:13:29.144Z,16.73
2019-01-05T19:16:18.435Z,21.93
2019-01-05T19:19:02.128Z,18.07
2019-01-05T19:21:56.342Z,17.82
2019-01-05T19:24:46.001Z,21.68
2019-01-05T19:27:38.164Z,23.18
2019-01-05T19:30:41.512Z,28.05
2019-01-05T19:33:26.266Z,25.40
2019-01-05T19:36:12.272Z,23.20
2019-01-05T19:39:09.792Z,26.73
2019-01-05T19:41:56.182Z,26.23
2019-01-05T19:44:44.859Z,23.83
2019-01-05T19:47:30.589Z,25.08
2019-01-05T19:50:12.521Z,23.45
2019-01-05T19:53:02.582Z,19.42
2019-01-05T19:55:52.657Z,20.43
2019-01-05T19:59:00.832Z,21.42
2019-01-05T20:01:49.807Z,20.17
2019-01-05T20:04:49.288Z,18.65
2019-01-05T20:07:51.122Z,17.23
2019-01-05T20:10:40.326Z,19.77
2019-01-05T20:13:31.803Z,18.10
2019-01-05T20:16:34.972Z,21.12
2019-01-05T20:19:24.422Z,20.95
2019-01-05T20:22:20.914Z,24.05
2019-01-05T20:25:17.558Z,21.85
2019-01-05T20:28:11.108Z,22.00
2019-01-05T20:31:07.534Z,25.48
2019-01-05T20:33:58.154Z,25.00
2019-01-05T20:36:48.118Z,23.77
2019-01-05T20:39:37.480Z,21.30
2019-01-05T20:42:27.135Z,29.72
2019-01-05T20:45:13.184Z,21.12
2019-01-05T20:48:19.115Z,24.92
2019-01-05T20:51:08.040Z,20.82
2019-01-05T20:54:13.433Z,26.60
2019-01-05T20:57:20.066Z,21.12
2019-01-05T21:00:02.837Z,18.77
2019-01-05T21:02:52.281Z,14.25
2019-01-05T21:05:33.248Z,16.60
2019-01-05T21:08:22.361Z,14.95
2019-01-05T21:11:21.713Z,14.78
2019-01-05T21:14:11.208Z,18.82
2019-01-05T21:17:10.801Z,18.60
2019-01-05T21:20:10.110Z,17.90
2019-01-05T21:22:49.276Z,14.87
2019-01-05T21:25:40.647Z,16.52
2019-01-05T21:28:50.092Z,13.60
2019-01-05T21:31:37.343Z,13.00
2019-01-05T21:34:36.077Z,13.98
2019-01-05T21:37:37.386Z,11.48
2019-01-05T21:40:34.916Z,12.07
2019-01-05T21:43:18.266Z,13.40
2019-01-05T21:46:13.683Z,12.40
2019-01-05T21:49:02.714Z,13.03
2019-01-05T21:52:05.371Z,11.55
2019-01-05T21:54:59.269Z,15.10
2019-01-05T21:57:53.145Z,13.72
2019-01-05T22:00:42.359Z,18.82
2019-01-05T22:03:30.955Z,24.90
2019-01-05T22:06:27.826Z,27.67
2019-01-05T22:09:16.707Z,28.95
2019-01-05T22:12:05.976Z,20.97
2019-01-05T22:14:52.487Z,22.55
2019-01-05T22:17:49.232Z,21.25
2019-01-05T22:20:31.997Z,20.05
2019-01-05T22:23:26.204Z,19.80
2019-01-05T22:26:31.347Z,20.20
2019-01-05T22:29:20.276Z,23.45
2019-01-05T22:32:07.441Z,25.08
2019-01-05T22:34:53.016Z,21.35
2019-01-05T22:37:43.374Z,20.88
2019-01-05T22:40:43.290Z,21.50
2019-01-05T22:43:32.372Z,20.43
2019-01-05T22:46:23.195Z,19.77
2019-01-05T22:49:12.553Z,21.48
2019-01-05T22:52:20.939Z,20.82
2019-01-05T22:55:08.058Z,22.42
2019-01-05T22:58:01.362Z,21.33
2019-01-05T23:00:45.912Z,21.05
2019-01-05T23:03:38.519Z,20.62
2019-01-05T23:06:27.881Z,18.92
2019-01-05T23:09:16.845Z,18.23
2019-01-05T23:12:16.670Z,21.82
2019-01-05T23:15:11.334Z,21.27
2019-01-05T23:18:03.943Z,21.25
2019-01-05T23:21:03.609Z,17.37
2019-01-05T23:23:53.119Z,21.33
2019-01-05T23:26:42.466Z,16.62
2019-01-05T23:29:31.632Z,15.80
2019-01-05T23:32:17.038Z,19.20
2019-01-05T23:35:13.757Z,19.80
2019-01-05T23:38:02.713Z,17.07
2019-01-05T23:40:51.888Z,13.60
2019-01-05T23:43:56.316Z,17.95
2019-01-05T23:46:46.790Z,13.40
2019-01-05T23:49:34.685Z,16.45
2019-01-05T23:52:28.154Z,17.20
2019-01-05T23:55:22.589Z,21.33
2019-01-05T23:58:29.895Z,20.17
